Time;durP1;ratioP1;P1;durP2;ratioP2;P2;SDS_P1;SDS_P2;PMS_P1;PMS_P2;Temp;Humidity;BMP_temperature;BMP_pressure;BME280_temperature;BME280_humidity;BME280_pressure;Samples;Min_cycle;Max_cycle;Signal;HPM_P1;HPM_P2
2024/04/01 00:00:30;;;;;;;5.43;2.80;;;;;;;;;;5068390;28;20198;-57
2024/04/01 00:02:56;;;;;;;4.55;2.75;;;;;;;;;;5068085;28;20199;-55
2024/04/01 00:05:22;;;;;;;6.53;2.92;;;;;;;;;;5068274;28;20207;-53
2024/04/01 00:07:51;;;;;;;8.60;2.95;;;;;;;;;;5068121;28;20234;-55
2024/04/01 00:10:18;;;;;;;9.02;4.07;;;;;;;;;;5068150;28;20218;-56
2024/04/01 00:12:45;;;;;;;6.00;2.70;;;;;;;;;;5068547;28;20195;-56
2024/04/01 00:15:11;;;;;;;7.50;2.95;;;;;;;;;;5067560;28;20210;-56
2024/04/01 00:17:37;;;;;;;6.85;3.22;;;;;;;;;;5068380;28;20229;-53
2024/04/01 00:20:04;;;;;;;11.63;3.83;;;;;;;;;;5068150;28;20589;-56
2024/04/01 00:22:31;;;;;;;5.22;2.78;;;;;;;;;;5067715;28;20216;-52
2024/04/01 00:24:57;;;;;;;5.05;2.90;;;;;;;;;;5032435;28;20731;-56
2024/04/01 00:27:23;;;;;;;7.80;3.10;;;;;;;;;;5067767;28;20240;-55
2024/04/01 00:29:51;;;;;;;4.85;2.65;;;;;;;;;;5068052;28;20202;-55
2024/04/01 00:32:16;;;;;;;6.68;3.90;;;;;;;;;;5067741;28;20190;-56
2024/04/01 00:34:43;;;;;;;9.25;4.55;;;;;;;;;;5068153;28;20217;-56
2024/04/01 00:37:08;;;;;;;8.07;3.17;;;;;;;;;;5067431;28;20594;-55
2024/04/01 00:39:35;;;;;;;10.55;4.47;;;;;;;;;;5067816;28;20199;-56
2024/04/01 00:42:01;;;;;;;9.82;3.97;;;;;;;;;;5067922;28;20226;-57
2024/04/01 00:44:28;;;;;;;5.85;3.10;;;;;;;;;;5068081;28;20222;-55
2024/04/01 00:46:55;;;;;;;6.22;3.35;;;;;;;;;;5067148;28;20222;-57
2024/04/01 00:49:22;;;;;;;4.68;2.72;;;;;;;;;;5067541;28;20285;-56
2024/04/01 00:51:49;;;;;;;6.38;3.35;;;;;;;;;;5067127;28;20221;-57
2024/04/01 00:54:16;;;;;;;8.82;2.90;;;;;;;;;;5067388;28;20203;-56
2024/04/01 00:56:43;;;;;;;8.30;3.05;;;;;;;;;;5067295;28;20198;-55
2024/04/01 00:59:09;;;;;;;6.15;2.70;;;;;;;;;;5067279;28;20210;-56
2024/04/01 01:01:35;;;;;;;8.52;3.78;;;;;;;;;;5048303;28;20203;-56
2024/04/01 01:04:05;;;;;;;7.80;3.10;;;;;;;;;;5067069;28;20607;-56
2024/04/01 01:06:31;;;;;;;8.57;3.08;;;;;;;;;;5066793;28;21102;-56
2024/04/01 01:08:58;;;;;;;8.07;3.17;;;;;;;;;;5066784;28;20289;-55
2024/04/01 01:11:24;;;;;;;5.97;2.85;;;;;;;;;;5067132;28;20192;-57
2024/04/01 01:13:51;;;;;;;5.05;2.85;;;;;;;;;;5066711;28;20289;-56
2024/04/01 01:16:16;;;;;;;8.95;3.60;;;;;;;;;;5066905;28;20223;-57
2024/04/01 01:18:43;;;;;;;5.68;2.88;;;;;;;;;;5066756;28;20323;-56
2024/04/01 01:21:10;;;;;;;8.55;3.05;;;;;;;;;;5066469;28;20203;-56
2024/04/01 01:23:37;;;;;;;9.43;3.17;;;;;;;;;;5047816;28;20626;-54
2024/04/01 01:26:03;;;;;;;8.13;3.13;;;;;;;;;;5066433;28;20971;-55
2024/04/01 01:28:30;;;;;;;6.72;2.72;;;;;;;;;;5066396;28;20238;-56
2024/04/01 01:30:56;;;;;;;7.85;3.25;;;;;;;;;;5066685;28;20202;-55
2024/04/01 01:33:23;;;;;;;5.45;2.70;;;;;;;;;;5066668;28;20202;-57
2024/04/01 01:35:49;;;;;;;8.15;2.95;;;;;;;;;;5066218;28;20252;-54
2024/04/01 01:38:16;;;;;;;7.15;3.10;;;;;;;;;;5030792;28;20225;-56
2024/04/01 01:40:43;;;;;;;9.00;3.28;;;;;;;;;;5066433;28;20282;-57
2024/04/01 01:43:10;;;;;;;9.85;3.67;;;;;;;;;;5066473;28;20253;-56
2024/04/01 01:45:35;;;;;;;6.35;3.33;;;;;;;;;;5066721;28;20201;-56
2024/04/01 01:48:02;;;;;;;14.40;4.72;;;;;;;;;;5066306;28;20222;-55
2024/04/01 01:50:28;;;;;;;8.93;3.55;;;;;;;;;;5066370;28;20285;-57
2024/04/01 01:52:55;;;;;;;11.23;4.57;;;;;;;;;;5066085;28;20199;-57
2024/04/01 01:55:21;;;;;;;8.20;3.85;;;;;;;;;;5066685;28;20195;-57
2024/04/01 01:57:48;;;;;;;10.13;3.30;;;;;;;;;;5066370;28;20593;-56
2024/04/01 02:00:14;;;;;;;9.95;3.65;;;;;;;;;;5047258;28;20222;-55
2024/04/01 02:02:41;;;;;;;20.35;13.65;;;;;;;;;;5065961;28;20679;-55
2024/04/01 02:05:07;;;;;;;19.48;17.27;;;;;;;;;;5066016;28;20683;-55
2024/04/01 02:07:34;;;;;;;20.95;16.70;;;;;;;;;;5065578;28;20233;-52
2024/04/01 02:09:59;;;;;;;29.38;26.58;;;;;;;;;;5047119;28;20199;-57
2024/04/01 02:12:26;;;;;;;27.70;24.98;;;;;;;;;;5066419;28;20237;-56
2024/04/01 02:14:53;;;;;;;16.17;14.55;;;;;;;;;;5066127;28;20224;-57
2024/04/01 02:17:20;;;;;;;26.73;24.10;;;;;;;;;;5066312;28;20226;-57
2024/04/01 02:19:45;;;;;;;25.23;22.80;;;;;;;;;;5066093;28;20207;-56
2024/04/01 02:22:13;;;;;;;17.48;15.68;;;;;;;;;;5066144;28;20707;-57
2024/04/01 02:24:39;;;;;;;20.75;17.55;;;;;;;;;;5066219;28;20199;-57
2024/04/01 02:27:06;;;;;;;20.25;18.05;;;;;;;;;;5066186;28;21002;-55
2024/04/01 02:29:31;;;;;;;11.88;10.88;;;;;;;;;;5046920;28;20289;-54
2024/04/01 02:31:59;;;;;;;13.13;11.93;;;;;;;;;;5066145;28;20293;-56
2024/04/01 02:34:25;;;;;;;15.07;12.55;;;;;;;;;;5065978;28;20628;-56
2024/04/01 02:36:51;;;;;;;11.57;10.23;;;;;;;;;;5030137;28;20206;-55
2024/04/01 02:39:17;;;;;;;9.70;8.68;;;;;;;;;;5068943;28;20203;-56
2024/04/01 02:41:43;;;;;;;9.27;8.27;;;;;;;;;;5033819;28;20300;-53
2024/04/01 02:44:09;;;;;;;8.82;7.50;;;;;;;;;;5070316;28;20214;-57
2024/04/01 02:46:36;;;;;;;8.43;7.63;;;;;;;;;;5069977;28;20683;-56
2024/04/01 02:49:04;;;;;;;7.70;7.00;;;;;;;;;;5069913;28;20613;-55
2024/04/01 02:51:30;;;;;;;10.38;6.65;;;;;;;;;;5069508;28;20195;-56
2024/04/01 02:53:56;;;;;;;5.60;4.15;;;;;;;;;;5069647;28;20203;-57
2024/04/01 02:56:22;;;;;;;7.10;4.10;;;;;;;;;;5069479;28;20207;-57
2024/04/01 02:58:49;;;;;;;7.65;4.93;;;;;;;;;;5069502;28;20198;-56
2024/04/01 03:01:15;;;;;;;8.52;4.30;;;;;;;;;;5050456;28;20207;-56
2024/04/01 03:03:41;;;;;;;11.48;4.93;;;;;;;;;;5069381;28;20202;-57
2024/04/01 03:06:09;;;;;;;7.22;4.13;;;;;;;;;;5033805;28;20198;-52
2024/04/01 03:08:35;;;;;;;7.18;3.65;;;;;;;;;;5069189;28;20276;-55
2024/04/01 03:11:02;;;;;;;6.32;3.55;;;;;;;;;;5050366;28;20683;-57
2024/04/01 03:13:28;;;;;;;4.80;3.30;;;;;;;;;;5069153;28;20199;-57
2024/04/01 03:15:54;;;;;;;5.40;3.28;;;;;;;;;;5069180;28;20210;-56
2024/04/01 03:18:20;;;;;;;6.22;3.35;;;;;;;;;;5069226;28;20194;-56
2024/04/01 03:20:47;;;;;;;4.78;3.20;;;;;;;;;;5069348;28;20591;-56
2024/04/01 03:23:14;;;;;;;3.53;2.80;;;;;;;;;;5068917;28;20222;-56
2024/04/01 03:25:41;;;;;;;3.75;2.55;;;;;;;;;;5069487;28;20218;-56
2024/04/01 03:28:07;;;;;;;4.20;3.08;;;;;;;;;;5069170;28;20240;-57
2024/04/01 03:30:33;;;;;;;5.60;2.92;;;;;;;;;;5069446;28;20664;-54
2024/04/01 03:32:59;;;;;;;8.82;4.95;;;;;;;;;;5069164;28;20199;-57
2024/04/01 03:35:26;;;;;;;5.50;3.70;;;;;;;;;;5068859;28;20205;-57
2024/04/01 03:37:52;;;;;;;7.78;3.85;;;;;;;;;;5068265;28;20203;-55
2024/04/01 03:40:20;;;;;;;7.18;4.35;;;;;;;;;;5068835;28;20604;-54
2024/04/01 03:42:47;;;;;;;9.77;4.93;;;;;;;;;;5068656;28;20227;-57
2024/04/01 03:45:12;;;;;;;9.35;7.45;;;;;;;;;;5068548;28;20195;-55
2024/04/01 03:47:39;;;;;;;6.72;4.75;;;;;;;;;;5068742;28;20230;-56
2024/04/01 03:50:05;;;;;;;9.45;6.43;;;;;;;;;;5067677;28;20698;-55
2024/04/01 03:52:32;;;;;;;11.73;7.68;;;;;;;;;;5068494;28;20199;-56
2024/04/01 03:54:58;;;;;;;14.18;7.50;;;;;;;;;;5068635;28;20203;-54
2024/04/01 03:57:26;;;;;;;13.60;7.68;;;;;;;;;;5068483;28;20206;-54
2024/04/01 03:59:51;;;;;;;12.68;7.00;;;;;;;;;;5068350;28;20202;-56
2024/04/01 04:02:18;;;;;;;7.30;6.35;;;;;;;;;;5068331;28;20203;-55
2024/04/01 04:04:45;;;;;;;12.23;8.85;;;;;;;;;;5068478;28;20699;-56
2024/04/01 04:07:10;;;;;;;9.77;8.10;;;;;;;;;;5068034;28;20198;-57
2024/04/01 04:09:37;;;;;;;8.13;7.25;;;;;;;;;;5068799;28;20214;-55
2024/04/01 04:12:03;;;;;;;12.32;8.43;;;;;;;;;;5068580;28;20210;-56
2024/04/01 04:14:31;;;;;;;10.70;8.90;;;;;;;;;;5068269;28;20199;-57
2024/04/01 04:16:57;;;;;;;9.80;8.57;;;;;;;;;;5068117;28;21115;-55
2024/04/01 04:19:25;;;;;;;11.35;10.15;;;;;;;;;;5032646;28;20214;-56
2024/04/01 04:21:51;;;;;;;11.10;7.43;;;;;;;;;;5067594;28;20244;-56
2024/04/01 04:24:18;;;;;;;11.25;8.63;;;;;;;;;;5068112;28;20658;-57
2024/04/01 04:26:43;;;;;;;12.50;9.32;;;;;;;;;;5048983;28;20214;-55
2024/04/01 04:29:10;;;;;;;13.23;9.95;;;;;;;;;;5067654;28;20238;-56
2024/04/01 04:31:37;;;;;;;14.13;11.05;;;;;;;;;;5067930;28;20207;-56
2024/04/01 04:34:04;;;;;;;19.60;14.07;;;;;;;;;;5067911;28;21074;-56
2024/04/01 04:36:29;;;;;;;18.83;11.90;;;;;;;;;;5067636;28;20319;-56
2024/04/01 04:38:56;;;;;;;11.38;9.73;;;;;;;;;;5067639;28;20658;-55
2024/04/01 04:41:22;;;;;;;13.50;10.13;;;;;;;;;;5067871;28;20286;-56
2024/04/01 04:43:48;;;;;;;11.15;9.57;;;;;;;;;;5067274;28;20246;-57
2024/04/01 04:46:14;;;;;;;13.27;8.68;;;;;;;;;;5067691;28;20203;-56
2024/04/01 04:48:43;;;;;;;8.18;7.38;;;;;;;;;;5067483;28;20620;-56
2024/04/01 04:51:10;;;;;;;14.95;9.40;;;;;;;;;;5067772;28;20712;-57
2024/04/01 04:53:36;;;;;;;12.05;8.93;;;;;;;;;;5067846;28;20230;-57
2024/04/01 04:56:04;;;;;;;10.38;7.35;;;;;;;;;;5048497;28;20213;-56
2024/04/01 04:58:29;;;;;;;11.13;9.07;;;;;;;;;;5067185;28;20225;-54
2024/04/01 05:00:56;;;;;;;18.42;9.10;;;;;;;;;;5066798;28;20675;-56
2024/04/01 05:03:22;;;;;;;15.55;8.80;;;;;;;;;;5067224;28;20195;-55
2024/04/01 05:05:50;;;;;;;12.20;8.57;;;;;;;;;;5067003;28;20573;-55
2024/04/01 05:08:15;;;;;;;15.77;8.07;;;;;;;;;;5066909;28;20710;-55
2024/04/01 05:10:43;;;;;;;10.38;7.55;;;;;;;;;;5067197;28;20206;-56
2024/04/01 05:13:10;;;;;;;13.48;9.10;;;;;;;;;;5067147;28;20207;-56
2024/04/01 05:15:37;;;;;;;13.18;8.25;;;;;;;;;;5066886;28;20214;-56
2024/04/01 05:18:03;;;;;;;16.77;9.23;;;;;;;;;;5067153;28;20226;-57
2024/04/01 05:20:30;;;;;;;13.98;7.95;;;;;;;;;;5066889;28;20210;-53
2024/04/01 05:22:56;;;;;;;16.67;7.20;;;;;;;;;;5047227;28;20733;-54
2024/04/01 05:25:24;;;;;;;12.50;7.53;;;;;;;;;;5066685;28;20298;-53
2024/04/01 05:27:49;;;;;;;14.00;7.22;;;;;;;;;;5066448;28;20238;-54
2024/04/01 05:30:19;;;;;;;11.68;7.97;;;;;;;;;;5066751;28;20256;-54
2024/04/01 05:32:44;;;;;;;11.68;7.97;;;;;;;;;;5066624;28;20606;-55
2024/04/01 05:35:12;;;;;;;15.88;7.13;;;;;;;;;;5066316;28;20203;-55
2024/04/01 05:37:37;;;;;;;16.42;7.55;;;;;;;;;;5066526;28;20195;-55
2024/04/01 05:40:06;;;;;;;15.75;7.55;;;;;;;;;;5066712;28;20218;-54
2024/04/01 05:42:31;;;;;;;18.15;7.97;;;;;;;;;;5066381;28;20254;-54
2024/04/01 05:44:58;;;;;;;12.25;5.60;;;;;;;;;;5066384;28;20203;-55
2024/04/01 05:47:24;;;;;;;10.10;5.10;;;;;;;;;;5066457;28;20298;-54
2024/04/01 05:49:50;;;;;;;12.20;5.28;;;;;;;;;;5030502;28;20791;-54
2024/04/01 05:52:16;;;;;;;16.05;6.80;;;;;;;;;;5066426;28;20195;-53
2024/04/01 05:54:42;;;;;;;10.25;5.25;;;;;;;;;;5030812;28;20226;-53
2024/04/01 05:57:10;;;;;;;16.02;5.70;;;;;;;;;;5066469;28;20203;-55
2024/04/01 05:59:36;;;;;;;11.82;4.75;;;;;;;;;;5066404;28;20202;-54
2024/04/01 06:02:02;;;;;;;10.38;5.00;;;;;;;;;;5066432;28;20226;-56
2024/04/01 06:04:28;;;;;;;13.07;4.93;;;;;;;;;;5065912;28;20210;-55
2024/04/01 06:06:55;;;;;;;14.88;5.72;;;;;;;;;;5066021;28;20203;-54
2024/04/01 06:09:20;;;;;;;9.13;4.63;;;;;;;;;;5047181;28;20233;-55
2024/04/01 06:11:48;;;;;;;16.33;5.22;;;;;;;;;;5065979;28;20202;-54
2024/04/01 06:14:15;;;;;;;12.60;6.28;;;;;;;;;;5072135;28;20210;-56
2024/04/01 06:16:41;;;;;;;11.98;5.15;;;;;;;;;;5072770;28;20581;-53
2024/04/01 06:19:07;;;;;;;13.07;5.45;;;;;;;;;;5072759;28;20198;-55
2024/04/01 06:21:34;;;;;;;11.05;5.43;;;;;;;;;;5072575;28;20225;-54
2024/04/01 06:23:59;;;;;;;22.30;6.78;;;;;;;;;;5072683;28;20210;-56
2024/04/01 06:26:26;;;;;;;13.35;5.38;;;;;;;;;;5072737;28;20202;-54
2024/04/01 06:28:51;;;;;;;16.85;5.80;;;;;;;;;;5072509;28;20234;-55
2024/04/01 06:31:19;;;;;;;16.85;6.70;;;;;;;;;;5072865;28;20209;-52
2024/04/01 06:33:45;;;;;;;12.43;4.93;;;;;;;;;;5072614;28;20207;-55
2024/04/01 06:36:12;;;;;;;15.18;5.18;;;;;;;;;;5072537;28;20702;-54
2024/04/01 06:38:37;;;;;;;12.32;4.85;;;;;;;;;;5072500;28;20202;-56
2024/04/01 06:41:04;;;;;;;15.18;5.30;;;;;;;;;;5072618;28;20202;-55
2024/04/01 06:43:30;;;;;;;11.77;6.10;;;;;;;;;;5072262;28;20253;-53
2024/04/01 06:45:57;;;;;;;15.43;6.82;;;;;;;;;;5072474;28;20683;-52
2024/04/01 06:48:25;;;;;;;11.40;5.53;;;;;;;;;;5072148;28;20233;-51
2024/04/01 06:50:51;;;;;;;13.32;4.88;;;;;;;;;;5072432;28;20317;-53
2024/04/01 06:53:17;;;;;;;8.18;4.80;;;;;;;;;;5072334;28;20203;-53
2024/04/01 06:55:44;;;;;;;14.98;5.72;;;;;;;;;;5072918;28;20207;-53
2024/04/01 06:58:10;;;;;;;14.70;5.60;;;;;;;;;;5072217;28;20206;-55
2024/04/01 07:00:37;;;;;;;8.00;4.70;;;;;;;;;;5072407;28;20199;-52
2024/04/01 07:03:02;;;;;;;11.98;5.55;;;;;;;;;;5072316;28;20237;-54
2024/04/01 07:05:31;;;;;;;15.15;5.65;;;;;;;;;;5071810;28;20234;-51
2024/04/01 07:07:56;;;;;;;11.90;4.70;;;;;;;;;;5072156;28;20569;-53
2024/04/01 07:10:23;;;;;;;9.48;5.38;;;;;;;;;;5072011;28;20217;-54
2024/04/01 07:12:48;;;;;;;22.55;5.55;;;;;;;;;;5053059;28;20191;-52
2024/04/01 07:15:15;;;;;;;11.52;5.25;;;;;;;;;;5072217;28;20214;-53
2024/04/01 07:17:43;;;;;;;11.80;5.60;;;;;;;;;;5072426;28;20202;-54
2024/04/01 07:20:10;;;;;;;20.38;5.88;;;;;;;;;;5053057;28;20213;-54
2024/04/01 07:22:37;;;;;;;18.05;5.60;;;;;;;;;;5071843;28;20603;-51
2024/04/01 07:25:04;;;;;;;15.52;5.65;;;;;;;;;;5070424;28;20244;-50
2024/04/01 07:27:34;;;;;;;9.68;4.30;;;;;;;;;;5068573;28;20198;-54
2024/04/01 07:30:00;;;;;;;12.32;4.55;;;;;;;;;;5068859;28;20323;-53
2024/04/01 07:32:26;;;;;;;9.85;4.10;;;;;;;;;;5068653;28;20210;-54
2024/04/01 07:34:53;;;;;;;19.17;5.47;;;;;;;;;;5068852;28;20660;-55
2024/04/01 07:37:19;;;;;;;12.73;4.00;;;;;;;;;;5068562;28;20203;-54
2024/04/01 07:39:47;;;;;;;12.88;4.28;;;;;;;;;;5068717;28;20784;-55
2024/04/01 07:42:13;;;;;;;13.73;5.28;;;;;;;;;;5067981;28;20231;-52
2024/04/01 07:44:39;;;;;;;9.15;4.93;;;;;;;;;;5068906;28;20256;-54
2024/04/01 07:47:06;;;;;;;15.80;4.50;;;;;;;;;;5068544;28;20637;-54
2024/04/01 07:49:33;;;;;;;10.30;4.13;;;;;;;;;;5068286;28;20586;-55
2024/04/01 07:51:58;;;;;;;15.52;4.72;;;;;;;;;;5068675;28;20662;-54
2024/04/01 07:54:26;;;;;;;9.60;3.38;;;;;;;;;;5068753;28;20203;-54
2024/04/01 07:56:53;;;;;;;13.38;3.65;;;;;;;;;;5068271;28;20210;-53
2024/04/01 07:59:20;;;;;;;9.15;3.60;;;;;;;;;;5068226;28;20207;-52
2024/04/01 08:01:45;;;;;;;11.90;3.40;;;;;;;;;;5068104;28;20195;-56
2024/04/01 08:04:13;;;;;;;12.80;3.80;;;;;;;;;;5068003;28;20203;-54
2024/04/01 08:06:39;;;;;;;13.00;3.92;;;;;;;;;;5068022;28;20209;-51
2024/04/01 08:09:06;;;;;;;13.10;4.10;;;;;;;;;;5068280;28;20235;-52
2024/04/01 08:11:31;;;;;;;13.10;3.80;;;;;;;;;;5068045;28;20195;-55
2024/04/01 08:13:59;;;;;;;12.80;4.28;;;;;;;;;;5068199;28;20206;-52
2024/04/01 08:16:25;;;;;;;17.10;3.78;;;;;;;;;;5068159;28;20215;-50
2024/04/01 08:18:51;;;;;;;16.75;4.25;;;;;;;;;;5067990;28;20317;-51
2024/04/01 08:21:17;;;;;;;16.25;4.32;;;;;;;;;;5067559;28;20691;-53
2024/04/01 08:23:44;;;;;;;10.50;3.50;;;;;;;;;;5067755;28;20233;-50
2024/04/01 08:26:09;;;;;;;13.60;4.30;;;;;;;;;;5032108;28;20203;-53
2024/04/01 08:28:36;;;;;;;16.23;4.15;;;;;;;;;;5067995;28;20222;-50
2024/04/01 08:31:03;;;;;;;13.02;4.07;;;;;;;;;;5032291;28;20206;-51
2024/04/01 08:33:29;;;;;;;19.42;4.70;;;;;;;;;;5067657;28;20217;-55
2024/04/01 08:35:55;;;;;;;13.88;4.43;;;;;;;;;;5066986;28;20210;-53
2024/04/01 08:38:22;;;;;;;11.63;4.40;;;;;;;;;;5068094;28;20199;-53
2024/04/01 08:40:50;;;;;;;18.45;4.57;;;;;;;;;;5067861;28;20207;-53
2024/04/01 08:43:24;;;;;;;17.33;4.43;;;;;;;;;;5067516;28;20323;-53
2024/04/01 08:45:50;;;;;;;17.77;5.00;;;;;;;;;;5067409;28;20575;-54
2024/04/01 08:48:20;;;;;;;14.80;4.28;;;;;;;;;;5067201;28;20218;-54
2024/04/01 08:50:53;;;;;;;15.38;4.65;;;;;;;;;;5067071;28;20207;-54
2024/04/01 08:53:25;;;;;;;26.27;5.93;;;;;;;;;;5067314;28;20226;-54
2024/04/01 08:55:51;;;;;;;23.08;5.70;;;;;;;;;;5067109;28;20206;-54
2024/04/01 08:58:17;;;;;;;20.88;6.05;;;;;;;;;;5067041;28;20210;-53
2024/04/01 09:00:43;;;;;;;22.45;6.10;;;;;;;;;;5066987;28;20282;-53
2024/04/01 09:03:09;;;;;;;19.20;5.20;;;;;;;;;;5066827;28;20297;-54
2024/04/01 09:05:36;;;;;;;23.10;6.78;;;;;;;;;;5066630;28;20774;-55
2024/04/01 09:08:03;;;;;;;20.85;6.53;;;;;;;;;;5067201;28;20206;-53
2024/04/01 09:10:29;;;;;;;15.65;6.10;;;;;;;;;;5031255;28;20719;-51
2024/04/01 09:12:59;;;;;;;24.30;5.97;;;;;;;;;;5067042;28;20352;-50
2024/04/01 09:15:25;;;;;;;22.55;7.47;;;;;;;;;;5066909;28;20207;-55
2024/04/01 09:17:51;;;;;;;28.90;7.32;;;;;;;;;;5066866;28;20217;-51
2024/04/01 09:20:17;;;;;;;19.40;6.45;;;;;;;;;;5066763;28;20206;-50
2024/04/01 09:22:45;;;;;;;24.35;6.70;;;;;;;;;;5066645;28;20226;-52
2024/04/01 09:25:10;;;;;;;21.27;6.93;;;;;;;;;;5047758;28;20202;-50
2024/04/01 09:27:37;;;;;;;20.02;6.25;;;;;;;;;;5066595;28;20195;-53
2024/04/01 09:30:03;;;;;;;23.88;6.03;;;;;;;;;;5066762;28;20727;-52
2024/04/01 09:32:29;;;;;;;16.38;6.00;;;;;;;;;;5066615;28;20206;-55
2024/04/01 09:34:58;;;;;;;26.17;6.60;;;;;;;;;;5066587;28;20207;-52
2024/04/01 09:37:25;;;;;;;25.67;6.68;;;;;;;;;;5066746;28;20703;-51
2024/04/01 09:39:52;;;;;;;21.08;6.63;;;;;;;;;;5066533;28;20214;-53
2024/04/01 09:42:19;;;;;;;21.55;7.30;;;;;;;;;;5030510;28;20266;-50
2024/04/01 09:44:45;;;;;;;26.75;8.00;;;;;;;;;;5066659;28;20202;-52
2024/04/01 09:47:11;;;;;;;30.20;7.75;;;;;;;;;;5066000;28;20214;-50
2024/04/01 09:49:38;;;;;;;28.40;7.55;;;;;;;;;;5065980;28;20223;-50
2024/04/01 09:52:06;;;;;;;28.10;7.53;;;;;;;;;;5047344;28;20590;-52
2024/04/01 09:54:31;;;;;;;30.52;7.57;;;;;;;;;;5066261;28;20213;-51
2024/04/01 09:57:12;;;;;;;24.95;7.88;;;;;;;;;;5066244;28;20669;-51
2024/04/01 09:59:56;;;;;;;29.23;7.63;;;;;;;;;;5066150;28;20715;-52
2024/04/01 10:02:36;;;;;;;32.10;9.30;;;;;;;;;;5003896;28;20197;-53
2024/04/01 10:05:19;;;;;;;31.98;7.70;;;;;;;;;;5004343;28;20205;-53
2024/04/01 10:08:09;;;;;;;29.67;8.23;;;;;;;;;;5004120;28;20673;-50
2024/04/01 10:10:51;;;;;;;24.20;6.88;;;;;;;;;;4945550;29;20230;-51
2024/04/01 10:13:33;;;;;;;37.88;9.25;;;;;;;;;;4945900;29;20634;-54
2024/04/01 10:16:16;;;;;;;32.03;7.97;;;;;;;;;;4945861;28;20210;-54
2024/04/01 10:19:04;;;;;;;39.40;9.10;;;;;;;;;;4945730;29;20217;-53
2024/04/01 10:21:40;;;;;;;26.58;7.63;;;;;;;;;;4945600;28;20202;-52
2024/04/01 10:24:17;;;;;;;33.50;9.30;;;;;;;;;;4945787;29;20727;-54
2024/04/01 10:27:01;;;;;;;27.25;8.75;;;;;;;;;;4929593;29;20199;-54
2024/04/01 10:29:52;;;;;;;34.30;9.88;;;;;;;;;;4945240;29;20238;-53
2024/04/01 10:32:31;;;;;;;31.67;8.40;;;;;;;;;;4945612;29;20282;-51
2024/04/01 10:35:10;;;;;;;36.45;9.90;;;;;;;;;;4945633;29;20333;-52
2024/04/01 10:37:57;;;;;;;40.28;9.82;;;;;;;;;;4945316;29;20262;-55
2024/04/01 10:40:33;;;;;;;37.25;8.75;;;;;;;;;;4993825;28;20229;-50
2024/04/01 10:43:12;;;;;;;28.27;8.77;;;;;;;;;;5003619;28;20224;-54
2024/04/01 10:46:11;;;;;;;40.55;9.35;;;;;;;;;;5003918;28;20209;-54
2024/04/01 10:48:43;;;;;;;28.40;8.90;;;;;;;;;;5023309;28;20632;-55
2024/04/01 10:51:36;;;;;;;30.33;9.02;;;;;;;;;;5023295;28;20208;-51
2024/04/01 10:54:04;;;;;;;31.20;9.05;;;;;;;;;;5023308;28;20321;-52
2024/04/01 10:57:03;;;;;;;33.80;10.10;;;;;;;;;;5023003;28;20200;-52
2024/04/01 10:59:52;;;;;;;33.30;9.05;;;;;;;;;;5024347;28;20720;-50
2024/04/01 11:02:30;;;;;;;28.00;9.23;;;;;;;;;;4948655;29;20214;-53
2024/04/01 11:05:11;;;;;;;33.97;8.80;;;;;;;;;;4948649;29;20238;-54
2024/04/01 11:07:49;;;;;;;33.65;9.77;;;;;;;;;;4948768;29;20210;-51
2024/04/01 11:10:17;;;;;;;32.97;9.43;;;;;;;;;;4948640;29;20214;-54
2024/04/01 11:12:48;;;;;;;31.17;9.18;;;;;;;;;;4948741;29;20214;-51
2024/04/01 11:15:14;;;;;;;37.53;10.82;;;;;;;;;;4948443;28;20771;-53
2024/04/01 11:17:43;;;;;;;29.75;9.38;;;;;;;;;;4948690;29;20293;-55
2024/04/01 11:20:20;;;;;;;30.67;9.73;;;;;;;;;;4992067;28;20262;-51
2024/04/01 11:23:00;;;;;;;32.40;10.40;;;;;;;;;;5006821;28;20225;-51
2024/04/01 11:25:30;;;;;;;29.10;8.93;;;;;;;;;;5006958;28;20215;-53
2024/04/01 11:28:07;;;;;;;36.88;9.93;;;;;;;;;;5006648;28;20208;-50
2024/04/01 11:30:34;;;;;;;34.10;10.25;;;;;;;;;;5006436;28;20288;-51
2024/04/01 11:33:04;;;;;;;39.08;11.13;;;;;;;;;;5006564;28;20208;-50
2024/04/01 11:35:36;;;;;;;37.10;10.48;;;;;;;;;;5006355;28;20205;-53
2024/04/01 11:38:12;;;;;;;27.77;9.85;;;;;;;;;;4982884;28;20194;-50
2024/04/01 11:40:38;;;;;;;31.15;10.02;;;;;;;;;;5068660;28;20218;-54
2024/04/01 11:43:07;;;;;;;38.88;10.75;;;;;;;;;;5049588;28;20231;-51
2024/04/01 11:45:36;;;;;;;37.15;10.70;;;;;;;;;;5068667;28;20199;-50
2024/04/01 11:48:03;;;;;;;33.13;10.20;;;;;;;;;;5068518;28;20294;-52
2024/04/01 11:50:28;;;;;;;29.60;10.32;;;;;;;;;;5068503;28;20683;-54
2024/04/01 11:52:58;;;;;;;30.90;9.55;;;;;;;;;;5068201;28;20210;-54
2024/04/01 11:55:25;;;;;;;25.92;9.70;;;;;;;;;;5068408;28;20194;-51
2024/04/01 11:57:52;;;;;;;35.25;11.52;;;;;;;;;;5068154;28;20207;-51
2024/04/01 12:00:18;;;;;;;30.73;10.18;;;;;;;;;;5032850;28;20222;-54
2024/04/01 12:02:51;;;;;;;41.33;10.85;;;;;;;;;;5068172;28;20199;-54
2024/04/01 12:05:17;;;;;;;32.00;11.32;;;;;;;;;;5068285;28;20202;-52
2024/04/01 12:07:45;;;;;;;32.58;10.82;;;;;;;;;;5032591;28;20199;-53
2024/04/01 12:10:13;;;;;;;34.33;10.98;;;;;;;;;;5067385;28;20299;-52
2024/04/01 12:12:41;;;;;;;35.88;11.57;;;;;;;;;;5068180;28;20238;-52
2024/04/01 12:15:08;;;;;;;35.08;11.02;;;;;;;;;;5068161;28;20203;-51
2024/04/01 12:17:36;;;;;;;36.72;11.85;;;;;;;;;;5068251;28;20249;-52
2024/04/01 12:20:03;;;;;;;22.45;8.15;;;;;;;;;;5032449;28;20227;-52
2024/04/01 12:22:29;;;;;;;36.95;10.68;;;;;;;;;;5067968;28;20219;-49
2024/04/01 12:24:55;;;;;;;38.40;12.05;;;;;;;;;;5068052;28;20199;-52
2024/04/01 12:27:22;;;;;;;37.15;10.73;;;;;;;;;;5068560;28;20227;-51
2024/04/01 12:29:50;;;;;;;39.10;10.73;;;;;;;;;;5067978;28;20203;-49
2024/04/01 12:32:16;;;;;;;34.92;10.73;;;;;;;;;;5067947;28;20561;-54
2024/04/01 12:34:43;;;;;;;38.13;10.77;;;;;;;;;;5067258;28;20204;-53
2024/04/01 12:37:10;;;;;;;34.95;10.65;;;;;;;;;;5067385;28;20257;-52
2024/04/01 12:39:40;;;;;;;35.63;10.25;;;;;;;;;;5067382;28;20231;-54
2024/04/01 12:42:07;;;;;;;32.70;9.40;;;;;;;;;;5067380;28;20227;-53
2024/04/01 12:44:33;;;;;;;32.28;9.10;;;;;;;;;;5067501;28;20268;-54
2024/04/01 12:47:01;;;;;;;34.72;9.65;;;;;;;;;;5067487;28;20210;-53
2024/04/01 12:49:26;;;;;;;21.55;7.82;;;;;;;;;;5067453;28;20694;-50
2024/04/01 12:51:53;;;;;;;26.08;7.85;;;;;;;;;;5067215;28;20210;-55
2024/04/01 12:54:36;;;;;;;29.88;8.48;;;;;;;;;;5067138;28;20587;-51
2024/04/01 12:57:11;;;;;;;29.42;8.45;;;;;;;;;;5067196;28;20292;-51
2024/04/01 12:59:44;;;;;;;21.70;8.60;;;;;;;;;;5067420;28;20226;-55
2024/04/01 13:02:22;;;;;;;34.45;10.02;;;;;;;;;;5067044;28;20203;-54
2024/04/01 13:04:55;;;;;;;25.25;7.93;;;;;;;;;;5067120;28;20203;-54
2024/04/01 13:07:28;;;;;;;23.88;7.80;;;;;;;;;;5067056;28;20608;-52
2024/04/01 13:09:57;;;;;;;28.33;7.63;;;;;;;;;;5066891;28;20242;-52
2024/04/01 13:12:31;;;;;;;23.35;7.63;;;;;;;;;;5067176;28;20233;-53
2024/04/01 13:15:05;;;;;;;27.60;8.57;;;;;;;;;;5047725;28;20199;-53
2024/04/01 13:17:36;;;;;;;28.70;8.32;;;;;;;;;;5066718;28;20797;-51
2024/04/01 13:20:06;;;;;;;31.42;9.70;;;;;;;;;;5066931;28;20235;-55
2024/04/01 13:22:37;;;;;;;27.48;7.65;;;;;;;;;;5066592;28;20230;-53
2024/04/01 13:25:06;;;;;;;24.90;7.88;;;;;;;;;;5066762;28;20206;-53
2024/04/01 13:27:38;;;;;;;22.90;7.55;;;;;;;;;;5066553;28;20214;-55
2024/04/01 13:30:05;;;;;;;29.50;8.30;;;;;;;;;;5066800;28;20199;-53
2024/04/01 13:32:42;;;;;;;31.17;8.70;;;;;;;;;;5066847;28;20280;-55
2024/04/01 13:35:17;;;;;;;30.00;8.25;;;;;;;;;;5066586;28;20203;-54
2024/04/01 13:37:47;;;;;;;25.13;8.27;;;;;;;;;;5066780;28;20202;-51
2024/04/01 13:40:17;;;;;;;19.73;6.80;;;;;;;;;;5066255;28;20311;-51
2024/04/01 13:42:49;;;;;;;25.17;8.23;;;;;;;;;;5066585;28;20230;-53
2024/04/01 13:45:23;;;;;;;25.52;7.90;;;;;;;;;;5066579;28;20297;-53
2024/04/01 13:47:56;;;;;;;23.15;8.30;;;;;;;;;;5066429;28;20198;-52
2024/04/01 13:50:23;;;;;;;31.02;9.95;;;;;;;;;;5066675;28;20206;-51
2024/04/01 13:53:10;;;;;;;22.85;7.70;;;;;;;;;;5066345;28;20207;-54
2024/04/01 13:55:39;;;;;;;24.48;9.10;;;;;;;;;;5004115;28;20197;-54
2024/04/01 13:58:10;;;;;;;22.30;7.70;;;;;;;;;;5004014;28;20204;-54
2024/04/01 14:00:41;;;;;;;24.05;8.25;;;;;;;;;;5003870;28;20291;-50
2024/04/01 14:03:14;;;;;;;26.40;9.00;;;;;;;;;;5004381;28;20630;-54
2024/04/01 14:05:56;;;;;;;25.40;9.35;;;;;;;;;;5003966;28;20205;-50
2024/04/01 14:08:28;;;;;;;23.65;8.85;;;;;;;;;;5004269;28;20204;-50
2024/04/01 14:10:57;;;;;;;28.40;8.73;;;;;;;;;;5003966;28;20686;-52
2024/04/01 14:13:29;;;;;;;26.75;8.05;;;;;;;;;;5004007;28;20263;-53
2024/04/01 14:16:01;;;;;;;28.42;8.63;;;;;;;;;;5003740;28;20256;-50
2024/04/01 14:18:34;;;;;;;17.23;6.97;;;;;;;;;;5003841;28;20723;-52
2024/04/01 14:21:00;;;;;;;20.42;6.47;;;;;;;;;;4955366;28;20322;-51
2024/04/01 14:23:26;;;;;;;21.95;8.30;;;;;;;;;;5003796;28;20311;-52
2024/04/01 14:25:54;;;;;;;28.77;8.57;;;;;;;;;;5003610;28;20215;-54
2024/04/01 14:28:21;;;;;;;26.58;8.20;;;;;;;;;;4955163;28;20312;-52
2024/04/01 14:30:47;;;;;;;31.98;7.57;;;;;;;;;;5003261;28;20211;-51
2024/04/01 14:33:16;;;;;;;25.38;8.60;;;;;;;;;;5051455;28;20273;-55
2024/04/01 14:35:43;;;;;;;22.15;6.93;;;;;;;;;;5069510;28;20228;-52
2024/04/01 14:38:13;;;;;;;22.10;6.28;;;;;;;;;;5070058;28;20317;-52